createdAt,value
2023-07-24T00:00:06.634Z,20.77
2023-07-24T00:02:33.373Z,20.58
2023-07-24T00:04:59.966Z,20.74
2023-07-24T00:07:26.673Z,20.58
2023-07-24T00:09:53.773Z,20.43
2023-07-24T00:12:20.374Z,20.57
2023-07-24T00:14:46.985Z,20.49
2023-07-24T00:17:13.651Z,20.45
2023-07-24T00:19:40.239Z,20.29
2023-07-24T00:22:06.941Z,20.20
2023-07-24T00:24:33.622Z,20.08
2023-07-24T00:27:00.366Z,20.07
2023-07-24T00:29:27.006Z,19.94
2023-07-24T00:31:53.661Z,19.93
2023-07-24T00:34:20.304Z,20.05
2023-07-24T00:36:46.937Z,19.99
2023-07-24T00:39:16.104Z,19.99
2023-07-24T00:41:43.811Z,19.94
2023-07-24T00:44:10.430Z,19.80
2023-07-24T00:46:37.373Z,19.64
2023-07-24T00:49:05.732Z,19.60
2023-07-24T00:51:32.761Z,19.49
2023-07-24T00:54:02.197Z,19.42
2023-07-24T00:56:30.511Z,19.50
2023-07-24T00:58:57.953Z,19.87
2023-07-24T01:01:25.161Z,20.00
2023-07-24T01:03:52.880Z,20.15
2023-07-24T01:06:19.804Z,20.22
2023-07-24T01:08:46.447Z,20.36
2023-07-24T01:11:17.461Z,20.51
2023-07-24T01:13:57.032Z,20.48
2023-07-24T01:16:27.858Z,20.41
2023-07-24T01:18:57.091Z,20.58
2023-07-24T01:21:30.651Z,20.60
2023-07-24T01:24:15.704Z,20.59
2023-07-24T01:26:42.818Z,20.65
2023-07-24T01:29:09.414Z,20.58
2023-07-24T01:31:36.270Z,20.56
2023-07-24T01:34:02.917Z,20.51
2023-07-24T01:36:29.740Z,20.50
2023-07-24T01:38:57.489Z,20.38
2023-07-24T01:41:25.079Z,20.26
2023-07-24T01:43:51.712Z,20.03
2023-07-24T01:46:18.361Z,20.14
2023-07-24T01:48:45.096Z,20.03
2023-07-24T01:51:11.676Z,20.00
2023-07-24T01:53:38.261Z,19.91
2023-07-24T01:56:05.174Z,19.89
2023-07-24T01:58:31.850Z,19.83
2023-07-24T02:00:58.521Z,19.66
2023-07-24T02:03:25.270Z,19.65
2023-07-24T02:05:52.746Z,19.44
2023-07-24T02:08:19.500Z,19.51
2023-07-24T02:10:49.953Z,19.40
2023-07-24T02:13:16.633Z,19.41
2023-07-24T02:15:43.202Z,19.32
2023-07-24T02:18:09.931Z,19.34
2023-07-24T02:20:36.522Z,19.28
2023-07-24T02:23:03.138Z,19.24
2023-07-24T02:25:29.784Z,19.41
2023-07-24T02:27:56.983Z,19.44
2023-07-24T02:30:23.640Z,19.86
2023-07-24T02:32:50.701Z,19.84
2023-07-24T02:35:19.302Z,19.87
2023-07-24T02:37:46.363Z,20.01
2023-07-24T02:40:13.409Z,20.24
2023-07-24T02:42:41.270Z,20.54
2023-07-24T02:45:12.373Z,20.63
2023-07-24T02:47:39.184Z,20.58
2023-07-24T02:50:06.180Z,20.71
2023-07-24T02:56:21.723Z,20.69
2023-07-24T02:58:48.301Z,20.67
2023-07-24T03:01:15.468Z,20.79
2023-07-24T03:03:42.703Z,20.80
2023-07-24T03:06:09.442Z,20.76
2023-07-24T03:08:36.006Z,20.82
2023-07-24T03:11:06.033Z,20.88
2023-07-24T03:13:32.572Z,20.87
2023-07-24T03:16:00.221Z,20.85
2023-07-24T03:18:27.000Z,20.93
2023-07-24T03:20:53.611Z,21.09
2023-07-24T03:23:21.299Z,21.11
2023-07-24T03:25:48.113Z,21.03
2023-07-24T03:28:14.665Z,20.93
2023-07-24T03:30:41.270Z,20.92
2023-07-24T03:33:08.398Z,20.92
2023-07-24T03:35:35.157Z,20.80
2023-07-24T03:38:01.758Z,20.81
2023-07-24T03:40:28.370Z,20.79
2023-07-24T03:42:55.010Z,20.93
2023-07-24T03:45:21.888Z,21.01
2023-07-24T03:47:48.505Z,21.14
2023-07-24T03:50:15.225Z,21.06
2023-07-24T03:52:41.799Z,21.03
2023-07-24T03:55:09.134Z,20.94
2023-07-24T03:57:35.891Z,21.06
2023-07-24T04:00:03.887Z,21.11
2023-07-24T04:02:30.477Z,21.31
2023-07-24T04:04:57.214Z,21.32
2023-07-24T04:07:24.002Z,21.43
2023-07-24T04:09:50.653Z,21.31
2023-07-24T04:12:17.203Z,21.35
2023-07-24T04:14:43.849Z,21.40
2023-07-24T04:17:10.751Z,21.48
2023-07-24T04:19:37.374Z,21.45
2023-07-24T04:22:04.209Z,21.49
2023-07-24T04:24:30.790Z,21.55
2023-07-24T04:26:57.402Z,21.48
2023-07-24T04:29:26.840Z,21.34
2023-07-24T04:31:53.628Z,21.50
2023-07-24T04:34:20.432Z,21.47
2023-07-24T04:36:46.967Z,21.34
2023-07-24T04:39:13.572Z,21.27
2023-07-24T04:41:40.182Z,21.22
2023-07-24T04:44:06.727Z,20.87
2023-07-24T04:46:33.687Z,20.64
2023-07-24T04:49:00.640Z,20.86
2023-07-24T04:51:27.242Z,20.77
2023-07-24T04:53:54.816Z,21.02
2023-07-24T04:56:21.389Z,21.30
2023-07-24T04:58:47.938Z,21.34
2023-07-24T05:01:14.507Z,21.44
2023-07-24T05:03:41.153Z,21.55
2023-07-24T05:06:07.739Z,21.85
2023-07-24T05:08:34.426Z,21.79
2023-07-24T05:11:01.043Z,21.90
2023-07-24T05:13:28.177Z,21.67
2023-07-24T05:15:54.758Z,21.83
2023-07-24T05:18:21.491Z,22.02
2023-07-24T05:20:49.709Z,21.79
2023-07-24T05:23:16.417Z,22.21
2023-07-24T05:25:43.061Z,22.44
2023-07-24T05:28:10.447Z,22.49
2023-07-24T05:30:37.304Z,22.47
2023-07-24T05:33:03.982Z,22.24
2023-07-24T05:35:30.722Z,22.24
2023-07-24T05:37:57.373Z,22.33
2023-07-24T05:40:24.028Z,22.38
2023-07-24T05:42:50.612Z,22.41
2023-07-24T05:45:17.226Z,22.46
2023-07-24T05:47:43.955Z,22.71
2023-07-24T05:50:11.003Z,22.91
2023-07-24T05:52:37.578Z,23.05
2023-07-24T05:55:04.597Z,23.09
2023-07-24T05:57:31.250Z,23.13
2023-07-24T05:59:57.816Z,23.37
2023-07-24T06:02:24.674Z,23.44
2023-07-24T06:04:51.402Z,23.39
2023-07-24T06:07:18.083Z,23.35
2023-07-24T06:09:44.688Z,23.39
2023-07-24T06:12:11.297Z,23.31
2023-07-24T06:14:37.871Z,23.14
2023-07-24T06:17:05.384Z,23.08
2023-07-24T06:19:32.050Z,23.04
2023-07-24T06:21:58.754Z,23.02
2023-07-24T06:24:25.452Z,22.99
2023-07-24T06:26:52.097Z,22.94
2023-07-24T06:29:18.748Z,23.06
2023-07-24T06:31:45.382Z,23.06
2023-07-24T06:34:12.081Z,23.04
2023-07-24T06:36:38.631Z,23.06
2023-07-24T06:39:05.276Z,23.07
2023-07-24T06:41:31.893Z,23.11
2023-07-24T06:43:58.492Z,23.11
2023-07-24T06:46:25.136Z,23.18
2023-07-24T06:48:51.724Z,23.26
2023-07-24T06:51:18.316Z,23.43
2023-07-24T06:53:44.873Z,23.61
2023-07-24T06:56:11.426Z,24.02
2023-07-24T06:58:37.967Z,24.32
2023-07-24T07:01:08.309Z,24.30
2023-07-24T07:03:38.094Z,24.49
2023-07-24T07:06:04.853Z,24.63
2023-07-24T07:08:31.851Z,24.79
2023-07-24T07:10:59.592Z,24.79
2023-07-24T07:13:26.237Z,24.78
2023-07-24T07:15:52.904Z,24.90
2023-07-24T07:18:19.715Z,24.96
2023-07-24T07:20:51.461Z,24.91
2023-07-24T07:23:18.738Z,25.24
2023-07-24T07:25:48.716Z,25.31
2023-07-24T07:28:16.814Z,25.30
2023-07-24T07:30:46.083Z,25.46
2023-07-24T07:33:12.945Z,25.77
2023-07-24T07:35:39.517Z,25.76
2023-07-24T07:38:06.121Z,25.85
2023-07-24T07:40:32.756Z,25.80
2023-07-24T07:42:59.337Z,25.81
2023-07-24T07:45:26.313Z,25.92
2023-07-24T07:47:54.447Z,25.92
2023-07-24T07:50:21.338Z,25.83
2023-07-24T07:52:51.748Z,25.80
2023-07-24T07:55:21.284Z,26.00
2023-07-24T07:57:47.904Z,26.10
2023-07-24T08:00:14.871Z,26.27
2023-07-24T08:02:41.592Z,26.17
2023-07-24T08:05:13.629Z,25.89
2023-07-24T08:07:41.153Z,25.71
2023-07-24T08:10:08.133Z,25.48
2023-07-24T08:12:35.117Z,25.55
2023-07-24T08:15:01.853Z,25.67
2023-07-24T08:17:28.598Z,25.65
2023-07-24T08:19:55.323Z,25.88
2023-07-24T08:22:23.748Z,25.88
2023-07-24T08:24:53.000Z,25.89
2023-07-24T08:27:21.115Z,26.17
2023-07-24T08:29:47.677Z,26.31
2023-07-24T08:32:14.529Z,26.35
2023-07-24T08:34:41.156Z,26.40
2023-07-24T08:37:07.745Z,26.52
2023-07-24T08:39:34.379Z,26.79
2023-07-24T08:42:01.202Z,26.76
2023-07-24T08:44:32.205Z,26.89
2023-07-24T08:46:59.362Z,27.25
2023-07-24T08:49:26.773Z,27.95
2023-07-24T08:51:54.293Z,28.10
2023-07-24T08:54:21.541Z,28.33
2023-07-24T08:56:51.349Z,28.37
2023-07-24T08:59:17.983Z,28.51
2023-07-24T09:01:45.271Z,28.48
2023-07-24T09:04:11.830Z,29.24
2023-07-24T09:06:38.557Z,29.92
2023-07-24T09:09:14.931Z,30.57
2023-07-24T09:11:50.261Z,30.76
2023-07-24T09:14:31.185Z,30.59
2023-07-24T09:17:05.013Z,31.15
2023-07-24T09:19:32.130Z,30.09
2023-07-24T09:22:12.765Z,29.61
2023-07-24T09:24:49.958Z,29.27
2023-07-24T09:27:16.656Z,28.15
2023-07-24T09:29:43.313Z,28.14
2023-07-24T09:32:39.121Z,28.20
2023-07-24T09:35:07.201Z,28.86
2023-07-24T09:37:35.467Z,28.86
2023-07-24T09:40:05.397Z,28.75
2023-07-24T09:42:47.467Z,28.85
2023-07-24T09:45:23.288Z,29.04
2023-07-24T09:47:56.545Z,29.04
2023-07-24T09:50:27.280Z,28.89
2023-07-24T09:52:55.722Z,28.53
2023-07-24T09:55:33.748Z,28.83
2023-07-24T09:58:01.794Z,28.40
2023-07-24T10:00:29.294Z,28.27
2023-07-24T10:02:57.176Z,28.26
2023-07-24T10:05:24.046Z,28.47
2023-07-24T10:07:52.502Z,28.29
2023-07-24T10:10:19.524Z,28.52
2023-07-24T10:12:46.310Z,28.54
2023-07-24T10:15:13.282Z,28.60
2023-07-24T10:17:41.813Z,28.82
2023-07-24T10:20:09.518Z,28.69
2023-07-24T10:22:39.088Z,28.75
2023-07-24T10:25:06.990Z,28.77
2023-07-24T10:27:37.805Z,28.89
2023-07-24T10:30:18.639Z,28.81
2023-07-24T10:32:54.219Z,28.60
2023-07-24T10:35:23.900Z,27.86
2023-07-24T10:38:01.290Z,27.38
2023-07-24T10:40:28.048Z,26.24
2023-07-24T10:43:07.911Z,25.87
2023-07-24T10:45:43.620Z,26.07
2023-07-24T10:48:12.773Z,26.51
2023-07-24T10:50:41.226Z,26.79
2023-07-24T10:53:07.849Z,26.85
2023-07-24T10:55:34.537Z,26.62
2023-07-24T10:58:01.129Z,26.54
2023-07-24T11:00:28.589Z,26.47
2023-07-24T11:02:55.956Z,26.33
2023-07-24T11:05:23.872Z,26.93
2023-07-24T11:07:50.924Z,27.75
2023-07-24T11:10:21.122Z,28.29
2023-07-24T11:12:48.387Z,28.79
2023-07-24T11:15:15.694Z,28.81
2023-07-24T11:17:43.676Z,29.37
2023-07-24T11:20:16.107Z,30.10
2023-07-24T11:22:44.463Z,30.05
2023-07-24T11:25:12.250Z,29.37
2023-07-24T11:27:42.459Z,27.99
2023-07-24T11:30:10.329Z,27.54
2023-07-24T11:32:39.895Z,28.14
2023-07-24T11:35:07.522Z,27.60
2023-07-24T11:37:35.954Z,27.45
2023-07-24T11:40:11.991Z,27.54
2023-07-24T11:42:40.476Z,28.00
2023-07-24T11:45:10.861Z,28.49
2023-07-24T11:47:48.622Z,28.61
2023-07-24T11:50:17.306Z,29.08
2023-07-24T11:52:46.582Z,29.14
2023-07-24T11:55:15.498Z,28.80
2023-07-24T11:57:42.196Z,28.23
2023-07-24T12:00:20.981Z,28.96
2023-07-24T12:02:47.774Z,29.01
2023-07-24T12:05:14.578Z,28.81
2023-07-24T12:07:45.050Z,29.04
2023-07-24T12:10:13.916Z,29.02
2023-07-24T12:12:47.996Z,28.72
2023-07-24T12:15:16.001Z,28.60
2023-07-24T12:17:42.712Z,28.62
2023-07-24T12:20:13.687Z,28.21
2023-07-24T12:22:40.495Z,27.78
2023-07-24T12:25:07.632Z,27.48
2023-07-24T12:27:34.607Z,27.22
2023-07-24T12:30:01.706Z,27.18
2023-07-24T12:32:28.341Z,27.11
2023-07-24T12:34:55.299Z,26.93
2023-07-24T12:37:22.085Z,26.78
2023-07-24T12:39:49.410Z,26.52
2023-07-24T12:42:16.994Z,26.23
2023-07-24T12:44:44.862Z,25.70
2023-07-24T12:47:12.672Z,25.07
2023-07-24T12:49:39.790Z,24.30
2023-07-24T12:52:07.056Z,23.75
2023-07-24T12:54:50.501Z,23.49
2023-07-24T12:57:20.238Z,23.03
2023-07-24T12:59:46.882Z,22.70
2023-07-24T13:02:13.450Z,22.31
2023-07-24T13:04:40.461Z,21.87
2023-07-24T13:07:07.201Z,21.71
2023-07-24T13:09:33.746Z,21.46
2023-07-24T13:12:00.404Z,21.24
2023-07-24T13:14:26.956Z,21.33
2023-07-24T13:16:53.663Z,21.71
2023-07-24T13:19:21.591Z,21.96
2023-07-24T13:21:48.564Z,22.30
2023-07-24T13:24:15.527Z,22.50
2023-07-24T13:26:42.290Z,22.94
2023-07-24T13:29:08.905Z,23.41
2023-07-24T13:31:36.174Z,23.38
2023-07-24T13:34:03.303Z,24.08
2023-07-24T13:36:30.363Z,23.84
2023-07-24T13:38:57.224Z,24.77
2023-07-24T13:41:23.804Z,25.19
2023-07-24T13:43:50.446Z,25.35
2023-07-24T13:46:17.074Z,25.95
2023-07-24T13:48:43.840Z,27.20
2023-07-24T13:51:10.483Z,29.15
2023-07-24T13:53:37.161Z,28.38
2023-07-24T13:56:04.274Z,27.61
2023-07-24T13:58:30.888Z,28.38
2023-07-24T14:00:57.504Z,27.59
2023-07-24T14:03:29.273Z,27.14
2023-07-24T14:05:56.809Z,27.60
2023-07-24T14:08:23.426Z,27.55
2023-07-24T14:10:50.140Z,28.48
2023-07-24T14:13:16.757Z,29.09
2023-07-24T14:15:43.652Z,27.92
2023-07-24T14:18:10.271Z,28.78
2023-07-24T14:20:38.340Z,29.34
2023-07-24T14:23:04.939Z,29.13
2023-07-24T14:25:31.565Z,30.62
2023-07-24T14:27:58.165Z,30.96
2023-07-24T14:30:24.715Z,32.13
2023-07-24T14:32:51.853Z,32.92
2023-07-24T14:35:19.373Z,30.27
2023-07-24T14:37:45.982Z,28.70
2023-07-24T14:40:13.290Z,27.63
2023-07-24T14:42:39.934Z,26.72
2023-07-24T14:45:07.338Z,26.73
2023-07-24T14:47:33.934Z,26.46
2023-07-24T14:50:00.623Z,26.78
2023-07-24T14:52:27.258Z,27.34
2023-07-24T14:54:53.871Z,27.60
2023-07-24T14:57:25.473Z,27.89
2023-07-24T14:59:52.545Z,28.54
2023-07-24T15:02:19.809Z,28.40
2023-07-24T15:04:46.494Z,28.24
2023-07-24T15:07:13.102Z,28.91
2023-07-24T15:09:39.712Z,30.24
2023-07-24T15:12:06.688Z,30.63
2023-07-24T15:14:33.376Z,30.24
2023-07-24T15:17:00.074Z,28.67
2023-07-24T15:19:26.686Z,27.93
2023-07-24T15:21:53.307Z,29.28
2023-07-24T15:24:20.373Z,29.35
2023-07-24T15:26:47.278Z,28.42
2023-07-24T15:29:18.860Z,27.94
2023-07-24T15:31:46.145Z,28.31
2023-07-24T15:34:12.959Z,28.75
2023-07-24T15:36:39.731Z,28.13
2023-07-24T15:39:06.518Z,28.95
2023-07-24T15:41:33.893Z,29.20
2023-07-24T15:44:00.873Z,29.28
2023-07-24T15:46:33.022Z,28.59
2023-07-24T15:49:00.813Z,28.39
2023-07-24T15:51:27.911Z,28.48
2023-07-24T15:53:55.184Z,30.30
2023-07-24T15:56:22.360Z,31.25
2023-07-24T15:58:51.055Z,32.71
2023-07-24T16:01:18.148Z,32.39
2023-07-24T16:03:45.076Z,30.00
2023-07-24T16:06:12.540Z,29.62
2023-07-24T16:08:39.368Z,29.45
2023-07-24T16:11:09.369Z,29.11
2023-07-24T16:13:45.172Z,28.92
2023-07-24T16:16:15.014Z,29.00
2023-07-24T16:18:42.458Z,29.81
2023-07-24T16:21:09.137Z,30.31
2023-07-24T16:23:36.062Z,30.61
2023-07-24T16:26:02.924Z,30.35
2023-07-24T16:28:29.564Z,31.32
2023-07-24T16:30:58.924Z,31.77
2023-07-24T16:33:26.023Z,31.53
2023-07-24T16:35:53.160Z,31.28
2023-07-24T16:38:19.977Z,30.11
2023-07-24T16:40:46.768Z,30.12
2023-07-24T16:43:13.434Z,30.01
2023-07-24T16:45:40.089Z,30.33
2023-07-24T16:48:07.186Z,29.89
2023-07-24T16:50:36.479Z,29.75
2023-07-24T16:53:04.187Z,28.88
2023-07-24T16:55:30.843Z,29.31
2023-07-24T16:57:57.869Z,29.55
2023-07-24T17:00:24.603Z,30.07
2023-07-24T17:02:51.375Z,31.16
2023-07-24T17:05:18.193Z,31.76
2023-07-24T17:07:44.810Z,30.45
2023-07-24T17:10:11.575Z,30.04
2023-07-24T17:12:38.170Z,29.75
2023-07-24T17:15:05.069Z,29.13
2023-07-24T17:17:31.755Z,28.73
2023-07-24T17:19:58.442Z,29.15
2023-07-24T17:22:25.246Z,29.69
2023-07-24T17:24:52.247Z,30.05
2023-07-24T17:27:18.889Z,29.52
2023-07-24T17:29:46.298Z,29.73
2023-07-24T17:32:14.166Z,30.19
2023-07-24T17:34:42.037Z,29.57
2023-07-24T17:37:08.669Z,29.72
2023-07-24T17:39:35.354Z,30.08
2023-07-24T17:42:02.035Z,30.06
2023-07-24T17:44:28.644Z,29.08
2023-07-24T17:46:55.261Z,28.85
2023-07-24T17:49:21.896Z,29.30
2023-07-24T17:51:48.535Z,29.31
2023-07-24T17:54:15.069Z,28.96
2023-07-24T17:56:41.954Z,28.17
2023-07-24T17:59:08.523Z,27.39
2023-07-24T18:01:36.225Z,26.95
2023-07-24T18:04:02.911Z,26.39
2023-07-24T18:06:29.525Z,25.96
2023-07-24T18:08:56.076Z,26.17
2023-07-24T18:11:22.730Z,25.95
2023-07-24T18:13:49.306Z,25.89
2023-07-24T18:16:17.285Z,25.75
2023-07-24T18:18:44.249Z,25.80
2023-07-24T18:21:10.896Z,25.66
2023-07-24T18:23:37.495Z,25.57
2023-07-24T18:26:04.233Z,25.55
2023-07-24T18:28:30.848Z,25.44
2023-07-24T18:30:57.423Z,25.41
2023-07-24T18:33:23.991Z,25.36
2023-07-24T18:35:53.391Z,25.36
2023-07-24T18:38:21.362Z,25.31
2023-07-24T18:40:48.103Z,25.15
2023-07-24T18:43:14.730Z,25.14
2023-07-24T18:45:41.430Z,24.99
2023-07-24T18:48:10.322Z,24.87
2023-07-24T18:50:37.006Z,24.81
2023-07-24T18:53:03.711Z,24.55
2023-07-24T18:55:30.574Z,24.53
2023-07-24T18:57:57.206Z,24.61
2023-07-24T19:00:23.890Z,24.66
2023-07-24T19:02:50.509Z,24.98
2023-07-24T19:05:17.154Z,23.96
2023-07-24T19:07:43.762Z,23.45
2023-07-24T19:10:11.371Z,23.09
2023-07-24T19:12:39.834Z,22.80
2023-07-24T19:15:07.930Z,22.38
2023-07-24T19:17:34.958Z,22.11
2023-07-24T19:20:01.653Z,22.07
2023-07-24T19:22:28.287Z,21.87
2023-07-24T19:24:55.348Z,21.54
2023-07-24T19:27:23.295Z,21.18
2023-07-24T19:29:51.154Z,20.91
2023-07-24T19:32:18.239Z,20.72
2023-07-24T19:34:45.288Z,20.57
2023-07-24T19:37:12.144Z,20.55
2023-07-24T19:39:41.803Z,20.44
2023-07-24T19:42:10.577Z,20.30
2023-07-24T19:44:38.469Z,20.49
2023-07-24T19:47:05.433Z,20.37
2023-07-24T19:49:34.510Z,20.42
2023-07-24T19:52:01.880Z,20.36
2023-07-24T19:54:30.027Z,20.38
2023-07-24T19:56:56.757Z,20.21
2023-07-24T19:59:23.646Z,20.06
2023-07-24T20:01:50.300Z,20.00
2023-07-24T20:04:16.972Z,20.00
2023-07-24T20:06:43.508Z,19.87
2023-07-24T20:09:10.156Z,19.92
2023-07-24T20:11:36.986Z,19.87
2023-07-24T20:14:03.772Z,19.89
2023-07-24T20:16:30.509Z,19.92
2023-07-24T20:18:57.132Z,20.00
2023-07-24T20:21:23.900Z,20.04
2023-07-24T20:23:50.507Z,19.99
2023-07-24T20:26:17.082Z,19.90
2023-07-24T20:28:44.506Z,20.01
2023-07-24T20:31:11.874Z,20.01
2023-07-24T20:33:38.834Z,19.99
2023-07-24T20:36:09.918Z,20.00
2023-07-24T20:38:37.998Z,20.08
2023-07-24T20:41:04.648Z,20.09
2023-07-24T20:43:31.316Z,20.05
2023-07-24T20:45:58.115Z,20.17
2023-07-24T20:48:25.858Z,20.09
2023-07-24T20:50:54.265Z,20.19
2023-07-24T20:53:20.847Z,20.12
2023-07-24T20:55:48.028Z,20.13
2023-07-24T20:58:14.584Z,20.17
2023-07-24T21:00:41.167Z,19.90
2023-07-24T21:03:07.855Z,19.31
2023-07-24T21:05:37.260Z,19.06
2023-07-24T21:08:04.600Z,18.80
2023-07-24T21:10:31.191Z,18.48
2023-07-24T21:12:57.808Z,18.46
2023-07-24T21:15:24.399Z,18.33
2023-07-24T21:17:51.039Z,18.22
2023-07-24T21:20:17.664Z,18.00
2023-07-24T21:22:44.285Z,18.07
2023-07-24T21:25:10.919Z,18.06
2023-07-24T21:27:37.648Z,17.92
2023-07-24T21:30:05.199Z,17.81
2023-07-24T21:32:31.827Z,18.00
2023-07-24T21:34:58.417Z,17.95
2023-07-24T21:37:25.032Z,17.86
2023-07-24T21:39:51.606Z,17.88
2023-07-24T21:42:18.234Z,17.90
2023-07-24T21:44:44.801Z,17.85
2023-07-24T21:47:11.528Z,17.88
2023-07-24T21:49:38.149Z,17.92
2023-07-24T21:52:05.116Z,17.79
2023-07-24T21:54:32.249Z,17.81
2023-07-24T21:56:58.828Z,17.92
2023-07-24T21:59:25.401Z,17.95
2023-07-24T22:01:52.004Z,17.94
2023-07-24T22:04:19.270Z,17.85
2023-07-24T22:06:45.867Z,17.83
2023-07-24T22:09:12.448Z,17.93
2023-07-24T22:11:39.009Z,17.84
2023-07-24T22:14:05.632Z,17.87
2023-07-24T22:16:32.286Z,17.74
2023-07-24T22:19:01.538Z,17.69
2023-07-24T22:21:28.196Z,17.59
2023-07-24T22:23:54.906Z,17.59
2023-07-24T22:26:21.509Z,17.32
2023-07-24T22:28:48.088Z,17.50
2023-07-24T22:31:14.905Z,17.55
2023-07-24T22:33:41.506Z,17.52
2023-07-24T22:36:08.138Z,17.52
2023-07-24T22:38:34.746Z,17.55
2023-07-24T22:41:10.044Z,17.52
2023-07-24T22:43:37.086Z,17.41
2023-07-24T22:46:03.843Z,17.30
2023-07-24T22:48:30.616Z,17.32
2023-07-24T22:50:57.228Z,17.36
2023-07-24T22:53:23.792Z,17.15
2023-07-24T22:55:50.372Z,17.12
2023-07-24T22:58:16.929Z,17.16
2023-07-24T23:00:43.581Z,17.27
2023-07-24T23:03:11.278Z,17.32
2023-07-24T23:05:37.920Z,17.35
2023-07-24T23:08:04.631Z,17.44
2023-07-24T23:11:08.677Z,17.41
2023-07-24T23:13:35.185Z,17.34
2023-07-24T23:16:01.700Z,17.43
2023-07-24T23:18:28.211Z,17.49
2023-07-24T23:20:54.717Z,17.56
2023-07-24T23:23:21.208Z,17.69
2023-07-24T23:25:47.689Z,17.78
2023-07-24T23:28:14.645Z,17.76
2023-07-24T23:30:41.936Z,17.80
2023-07-24T23:33:09.323Z,17.82
2023-07-24T23:35:35.846Z,17.72
2023-07-24T23:38:02.698Z,17.76
2023-07-24T23:40:29.209Z,17.77
2023-07-24T23:42:55.719Z,17.88
2023-07-24T23:45:22.221Z,17.83
2023-07-24T23:47:48.710Z,17.92
2023-07-24T23:50:15.280Z,18.00
2023-07-24T23:52:41.789Z,18.07
2023-07-24T23:55:09.643Z,18.09
2023-07-24T23:57:36.172Z,18.07
